Crabtree, OR

4:12 PM PDT on May 04, 2015 (GMT -0700)
Mahlon Sweet | | Change Station
CLOSE
Current Station
Airport
Location: Eugene,
Elevation: 374 ft
Nearby Weather Stations

Elev 374 ft 44.12 °N, 123.21 °W | Updated 18 minutes ago

Overcast
Overcast
64 °F
Feels Like 64 °F
N
15
Wind Variable Wind from WSW

Today
High -- | Low -- °F
--% Chance of Precip.
Yesterday
High -- | Low -- °F
Precip. -- in
5:57 AM 8:19 PM
Full, 99% visible
Pressure 30.01 in
Visibility 10.0 miles
Clouds Scattered Clouds 4500 ft
Dew Point 42 °F
Humidity 45%
Rainfall 0.00 in
Snow Depth Not available.
UV 5 out of 12
Pollen 7.80 out of 12
Air Quality Not available.
Flu Activity Regional
METAR KEUG 042254Z 24013KT 10SM SCT045 18/06 A3001 RMK AO2 SLP163 T01780056

More Conditions Fewer Conditions

Pressure 30.01 in
Visibility 10.0 miles
Clouds Scattered Clouds 4500 ft
Dew Point 42 °F
Humidity 45%
Rainfall 0.00 in
Snow Depth Not available.
UV 5 out of 12
Pollen 7.80 out of 12
Air Quality Not available.
Flu Activity Regional
METAR KEUG 042254Z 24013KT 10SM SCT045 18/06 A3001 RMK AO2 SLP163 T01780056

More Conditions Fewer Conditions

Nepal has a long way to go to dig out and rebuild from a devastating earthquake. We have teamed up with several charities and organizations to make contributing to the relief effort as easy as possible.
How you can help: Portlight Strategies | Red Cross

10-Day Weather Forecast

Almanac

Astronomy

May. 04, 2015 Rise Set
Actual Time
Civil Twilight
Nautical Twilight
Astronomical Twilight
Moon
Length of Visible Light
Length of Day
Tomorrow will be .
, % of the Moon is Illuminated

Today's Extremes

State Highs State Lows

Community

WunderPhotos

Upload Photos

1,818,726 photos uploaded!

WunderBlogs® & News

Nearby

Air Quality

  Air Quality AQ Index Pollutant
Not available.

Snow Depth

Station Depth Elevation

Earthquake Activity

City Distance Mag. Time & Date
Minimum magnitude displayed is 2.5.

Coastal Water Temperatures

Place Temperature

Stations

Nearby Weather Stations

Station Location Temp. Windchill Dew Point Humidity Wind Precip. Elev Updated Type